Time;durP1;ratioP1;P1;durP2;ratioP2;P2;SDS_P1;SDS_P2;PMS_P1;PMS_P2;Temp;Humidity;BMP_temperature;BMP_pressure;BME280_temperature;BME280_humidity;BME280_pressure;Samples;Min_cycle;Max_cycle;Signal;HPM_P1;HPM_P2
2022/11/13 00:00:40;;;;;;;27.70;17.73;;;5.40;99.90;;;;;;6178959;23;20021;-82
2022/11/13 00:03:06;;;;;;;24.80;17.73;;;5.50;99.90;;;;;;6175595;23;20342;-82
2022/11/13 00:05:31;;;;;;;28.17;20.45;;;5.50;99.90;;;;;;6176243;23;20021;-82
2022/11/13 00:07:57;;;;;;;26.00;18.55;;;5.50;99.90;;;;;;6176315;23;20024;-82
2022/11/13 00:10:22;;;;;;;24.88;18.40;;;5.50;99.90;;;;;;6176164;23;20402;-82
2022/11/13 00:12:48;;;;;;;27.42;19.35;;;5.50;99.90;;;;;;6178050;23;20020;-82
2022/11/13 00:15:14;;;;;;;35.10;21.13;;;5.50;99.90;;;;;;6176018;23;20460;-82
2022/11/13 00:17:40;;;;;;;29.50;19.88;;;5.60;99.90;;;;;;6177105;23;20009;-81
2022/11/13 00:20:06;;;;;;;30.15;20.92;;;5.60;99.90;;;;;;6178285;23;20068;-82
2022/11/13 00:22:31;;;;;;;30.77;21.55;;;5.70;99.90;;;;;;6179633;23;20068;-82
2022/11/13 00:24:57;;;;;;;29.98;21.55;;;5.70;99.90;;;;;;6179480;23;20457;-81
2022/11/13 00:27:22;;;;;;;30.17;21.35;;;5.70;99.90;;;;;;6179374;23;20037;-82
2022/11/13 00:29:48;;;;;;;32.33;21.70;;;5.80;99.90;;;;;;6180332;23;20021;-82
2022/11/13 00:32:14;;;;;;;31.13;21.83;;;5.80;99.90;;;;;;6180399;23;20080;-82
2022/11/13 00:34:39;;;;;;;31.20;22.17;;;5.90;99.90;;;;;;6179386;23;20334;-82
2022/11/13 00:37:05;;;;;;;34.45;22.90;;;5.90;99.90;;;;;;6178361;23;20083;-82
2022/11/13 00:39:31;;;;;;;33.53;23.92;;;5.90;99.90;;;;;;6183044;23;20502;-82
2022/11/13 00:41:56;;;;;;;34.95;24.75;;;6.00;99.90;;;;;;6209421;23;20022;-82
2022/11/13 00:44:22;;;;;;;37.33;24.02;;;6.30;99.90;;;;;;6184148;23;20012;-82
2022/11/13 00:46:47;;;;;;;32.47;22.63;;;6.00;99.90;;;;;;6210376;23;20021;-82
2022/11/13 00:49:13;;;;;;;37.58;23.13;;;6.00;99.90;;;;;;6158308;23;20070;-82
2022/11/13 00:51:39;;;;;;;31.85;22.52;;;6.10;99.90;;;;;;6209882;23;20016;-81
2022/11/13 00:54:04;;;;;;;32.55;22.88;;;6.10;99.90;;;;;;6159036;23;20034;-82
2022/11/13 00:56:30;;;;;;;35.58;21.52;;;6.10;99.90;;;;;;6209382;23;20009;-82
2022/11/13 00:58:56;;;;;;;31.80;21.98;;;6.20;99.90;;;;;;6184393;23;20341;-81
2022/11/13 01:01:22;;;;;;;30.33;21.00;;;6.10;99.90;;;;;;6210360;23;20012;-82
2022/11/13 01:03:48;;;;;;;29.80;20.55;;;6.10;99.90;;;;;;6183797;23;20020;-82
2022/11/13 01:06:18;;;;;;;28.75;21.20;;;6.10;99.90;;;;;;6183832;23;20016;-83
2022/11/13 01:08:44;;;;;;;29.73;21.25;;;6.10;99.90;;;;;;6183856;23;20020;-82
2022/11/13 01:11:15;;;;;;;27.92;20.55;;;6.10;99.90;;;;;;6184032;23;20035;-82
2022/11/13 01:13:43;;;;;;;29.10;21.63;;;6.10;99.90;;;;;;6183727;23;20016;-82
2022/11/13 01:16:11;;;;;;;27.67;20.08;;;6.10;99.90;;;;;;6209487;23;20086;-82
2022/11/13 01:18:37;;;;;;;29.75;19.85;;;6.10;99.90;;;;;;6183614;23;20612;-82
2022/11/13 01:21:12;;;;;;;28.15;20.45;;;6.10;99.90;;;;;;6182643;23;20009;-82
2022/11/13 01:23:38;;;;;;;29.50;20.23;;;6.10;99.90;;;;;;6159131;23;20012;-82
2022/11/13 01:26:18;;;;;;;29.40;19.92;;;6.10;99.90;;;;;;6207841;23;20016;-82
2022/11/13 01:28:44;;;;;;;26.98;19.38;;;6.10;99.90;;;;;;6182934;23;20016;-82
2022/11/13 01:31:19;;;;;;;28.85;19.48;;;6.10;99.90;;;;;;6211057;23;20017;-82
2022/11/13 01:33:46;;;;;;;27.55;19.45;;;6.10;99.90;;;;;;6184132;23;20048;-81
2022/11/13 01:36:16;;;;;;;29.27;20.85;;;6.10;99.90;;;;;;6183817;23;20012;-81
2022/11/13 01:38:42;;;;;;;27.75;19.70;;;6.10;99.90;;;;;;6184460;23;20330;-81
2022/11/13 01:41:15;;;;;;;29.10;19.67;;;6.10;99.90;;;;;;6183056;23;20021;-81
2022/11/13 01:43:40;;;;;;;26.73;18.85;;;6.10;99.90;;;;;;6182948;23;20036;-81
2022/11/13 01:46:29;;;;;;;28.17;19.33;;;6.10;99.90;;;;;;6210436;23;20028;-82
2022/11/13 01:49:10;;;;;;;28.67;20.15;;;6.10;99.90;;;;;;6183702;23;20021;-82
2022/11/13 01:51:40;;;;;;;27.75;20.48;;;6.10;99.90;;;;;;6210002;23;20091;-82
2022/11/13 01:54:32;;;;;;;30.10;20.42;;;6.10;99.90;;;;;;6212059;23;20455;-82
2022/11/13 01:56:58;;;;;;;32.67;20.92;;;6.10;99.90;;;;;;6184849;23;20080;-82
2022/11/13 01:59:33;;;;;;;29.33;21.00;;;6.10;99.90;;;;;;6185061;23;20437;-82
2022/11/13 02:01:59;;;;;;;30.27;19.65;;;6.10;99.90;;;;;;6160979;23;20078;-82
2022/11/13 02:04:26;;;;;;;30.98;20.23;;;6.10;99.90;;;;;;6185357;23;20468;-82
2022/11/13 02:06:59;;;;;;;32.33;20.02;;;6.10;99.90;;;;;;6185292;23;20017;-82
2022/11/13 02:09:28;;;;;;;28.73;19.75;;;6.10;99.90;;;;;;6213005;23;20020;-81
2022/11/13 02:11:55;;;;;;;31.20;19.13;;;6.10;99.90;;;;;;6186221;23;20445;-82
2022/11/13 02:14:24;;;;;;;29.38;19.60;;;6.10;99.90;;;;;;6209693;23;20012;-82
2022/11/13 02:16:54;;;;;;;26.95;19.77;;;6.10;99.90;;;;;;6184258;23;20068;-82
2022/11/13 02:19:31;;;;;;;28.90;19.88;;;6.10;99.90;;;;;;6184870;23;20019;-82
2022/11/13 02:22:15;;;;;;;28.73;19.33;;;6.10;99.90;;;;;;6212528;23;20092;-82
2022/11/13 02:24:44;;;;;;;27.85;18.90;;;6.10;99.90;;;;;;6211894;23;20020;-82
2022/11/13 02:27:35;;;;;;;28.33;18.80;;;6.10;99.90;;;;;;6184205;23;20373;-82
2022/11/13 02:30:13;;;;;;;26.25;18.60;;;6.10;99.90;;;;;;6169213;23;20052;-82
2022/11/13 02:32:44;;;;;;;26.63;17.65;;;6.10;99.90;;;;;;6184667;23;20092;-82
2022/11/13 02:35:12;;;;;;;23.63;17.88;;;6.00;99.90;;;;;;6185451;23;20075;-81
2022/11/13 02:37:38;;;;;;;27.17;19.35;;;6.10;99.90;;;;;;6185033;23;20021;-81
2022/11/13 02:40:04;;;;;;;26.25;19.00;;;6.00;99.90;;;;;;6184936;23;20092;-81
2022/11/13 02:42:30;;;;;;;25.45;18.40;;;6.00;99.90;;;;;;6211028;23;20088;-81
2022/11/13 02:44:56;;;;;;;26.13;18.77;;;6.00;99.90;;;;;;6212154;23;20452;-81
2022/11/13 02:47:22;;;;;;;26.17;18.13;;;6.00;99.90;;;;;;6184104;23;20451;-81
2022/11/13 02:49:47;;;;;;;26.27;17.73;;;6.00;99.90;;;;;;6211294;23;20008;-80
2022/11/13 02:52:13;;;;;;;26.10;18.58;;;6.00;99.90;;;;;;6185253;23;20012;-81
2022/11/13 02:54:39;;;;;;;27.25;17.95;;;6.00;99.90;;;;;;6211835;23;20020;-82
2022/11/13 02:57:04;;;;;;;25.80;17.33;;;6.00;99.90;;;;;;6184489;23;20045;-82
2022/11/13 02:59:30;;;;;;;26.60;17.65;;;6.10;99.90;;;;;;6212273;23;20091;-81
2022/11/13 03:01:55;;;;;;;26.48;18.08;;;6.10;99.90;;;;;;6212473;23;20023;-81
2022/11/13 03:04:21;;;;;;;27.85;17.92;;;6.10;99.90;;;;;;6211754;23;20009;-81
2022/11/13 03:06:47;;;;;;;25.05;18.23;;;6.10;99.90;;;;;;6160001;23;20070;-82
2022/11/13 03:09:13;;;;;;;27.08;17.42;;;6.10;99.90;;;;;;6211780;23;20508;-81
2022/11/13 03:11:38;;;;;;;26.60;17.70;;;6.10;99.90;;;;;;6185071;23;20052;-82
2022/11/13 03:14:04;;;;;;;24.17;17.48;;;6.10;99.90;;;;;;6211274;23;20501;-81
2022/11/13 03:16:30;;;;;;;23.83;17.83;;;6.10;99.90;;;;;;6183803;23;20095;-81
2022/11/13 03:18:56;;;;;;;24.70;16.58;;;6.10;99.90;;;;;;6184037;23;20025;-81
2022/11/13 03:21:23;;;;;;;24.13;16.65;;;6.10;99.90;;;;;;6183499;23;20093;-81
2022/11/13 03:23:48;;;;;;;23.73;16.70;;;6.10;99.90;;;;;;6184848;23;20088;-82
2022/11/13 03:26:15;;;;;;;25.85;17.98;;;6.10;99.90;;;;;;6183874;23;20048;-81
2022/11/13 03:28:41;;;;;;;24.88;17.52;;;6.10;99.90;;;;;;6184297;23;20021;-82
2022/11/13 03:31:07;;;;;;;25.83;17.98;;;6.10;99.90;;;;;;6212047;23;20009;-81
2022/11/13 03:33:33;;;;;;;25.85;17.20;;;6.10;99.90;;;;;;6159844;23;20012;-81
2022/11/13 03:35:58;;;;;;;24.83;17.23;;;6.10;99.90;;;;;;6183673;23;20016;-82
2022/11/13 03:38:24;;;;;;;23.88;16.88;;;6.10;99.90;;;;;;6211754;23;20017;-81
2022/11/13 03:40:50;;;;;;;21.92;16.10;;;6.00;99.90;;;;;;6210769;23;20015;-81
2022/11/13 03:43:16;;;;;;;22.50;15.93;;;6.00;99.90;;;;;;6185441;23;20729;-81
2022/11/13 03:45:46;;;;;;;22.55;16.10;;;6.00;99.90;;;;;;6210962;23;20108;-81
2022/11/13 03:48:14;;;;;;;24.45;17.27;;;6.00;99.90;;;;;;6185190;23;20024;-81
2022/11/13 03:50:42;;;;;;;25.45;16.58;;;6.00;99.90;;;;;;6210880;23;20019;-81
2022/11/13 03:53:08;;;;;;;24.65;16.08;;;6.00;99.90;;;;;;6184477;23;20448;-81
2022/11/13 03:55:33;;;;;;;21.13;15.40;;;6.00;99.90;;;;;;6210811;23;20059;-82
2022/11/13 03:57:59;;;;;;;21.20;15.63;;;6.00;99.90;;;;;;6211142;23;20051;-81
2022/11/13 04:00:25;;;;;;;24.70;15.85;;;6.00;99.90;;;;;;6211483;23;20378;-81
2022/11/13 04:02:50;;;;;;;23.27;15.93;;;5.90;99.90;;;;;;6211318;23;20013;-82
2022/11/13 04:05:16;;;;;;;22.67;15.98;;;6.00;99.90;;;;;;6210773;23;20445;-81
2022/11/13 04:07:42;;;;;;;26.80;17.02;;;5.90;99.90;;;;;;6211274;23;20013;-81
2022/11/13 04:10:08;;;;;;;21.98;16.15;;;5.90;99.90;;;;;;6210025;23;20012;-81
2022/11/13 04:12:33;;;;;;;23.33;16.73;;;5.90;99.90;;;;;;6211481;23;20433;-81
2022/11/13 04:14:59;;;;;;;25.25;17.13;;;5.90;99.90;;;;;;6184195;23;20361;-81
2022/11/13 04:17:25;;;;;;;25.27;16.17;;;5.80;99.90;;;;;;6210708;23;20013;-82
2022/11/13 04:19:50;;;;;;;24.83;17.70;;;5.90;99.90;;;;;;6210467;23;20016;-81
2022/11/13 04:22:16;;;;;;;27.58;16.60;;;5.80;99.90;;;;;;6184707;23;20024;-81
2022/11/13 04:24:42;;;;;;;23.45;16.60;;;5.80;99.90;;;;;;6183658;23;20036;-81
2022/11/13 04:27:07;;;;;;;21.75;16.40;;;5.80;99.90;;;;;;6184464;23;20445;-81
2022/11/13 04:29:33;;;;;;;22.83;16.10;;;5.80;99.90;;;;;;6184105;23;20070;-81
2022/11/13 04:31:58;;;;;;;23.73;15.68;;;5.70;99.90;;;;;;6184507;23;20671;-81
2022/11/13 04:34:24;;;;;;;23.58;16.88;;;5.70;99.90;;;;;;6184791;23;20445;-81
2022/11/13 04:36:49;;;;;;;21.35;16.33;;;5.70;99.90;;;;;;6183774;23;20097;-81
2022/11/13 04:39:15;;;;;;;21.60;16.02;;;5.70;99.90;;;;;;6209913;23;20008;-81
2022/11/13 04:44:25;;;;;;;24.88;17.70;;;5.60;99.90;;;;;;6183254;23;20020;-81
2022/11/13 04:46:51;;;;;;;25.67;17.88;;;5.70;99.90;;;;;;6210618;23;20054;-81
2022/11/13 04:49:17;;;;;;;28.88;19.73;;;5.70;99.90;;;;;;6183646;23;20051;-81
2022/11/13 04:51:43;;;;;;;26.73;18.20;;;5.70;99.90;;;;;;6183867;23;20008;-81
2022/11/13 04:54:08;;;;;;;29.40;16.92;;;5.70;99.90;;;;;;6183874;23;20393;-81
2022/11/13 04:56:34;;;;;;;24.27;16.90;;;5.70;99.90;;;;;;6184079;23;20017;-81
2022/11/13 04:59:00;;;;;;;26.40;17.17;;;5.70;99.90;;;;;;6210726;23;20016;-81
2022/11/13 05:01:25;;;;;;;24.35;17.52;;;5.70;99.90;;;;;;6211055;23;20433;-81
2022/11/13 05:03:51;;;;;;;25.73;18.08;;;5.70;99.90;;;;;;6210401;23;20008;-81
2022/11/13 05:06:16;;;;;;;26.65;17.52;;;5.70;99.90;;;;;;6210785;23;20012;-81
2022/11/13 05:08:42;;;;;;;24.90;17.48;;;5.70;99.90;;;;;;6183642;23;20027;-81
2022/11/13 05:11:08;;;;;;;24.65;17.13;;;5.70;99.90;;;;;;6210907;23;20425;-81
2022/11/13 05:13:35;;;;;;;22.98;17.45;;;5.70;99.90;;;;;;6184497;23;20337;-81
2022/11/13 05:16:09;;;;;;;27.30;17.95;;;5.70;99.90;;;;;;6211202;23;20016;-81
2022/11/13 05:18:36;;;;;;;25.75;18.13;;;5.60;99.90;;;;;;6210084;23;20071;-81
2022/11/13 05:21:04;;;;;;;23.80;16.85;;;5.60;99.90;;;;;;6183297;23;20094;-81
2022/11/13 05:23:29;;;;;;;29.05;18.55;;;5.60;99.90;;;;;;6182990;23;20013;-82
2022/11/13 05:26:07;;;;;;;25.00;17.08;;;5.60;99.90;;;;;;6183768;23;20032;-81
2022/11/13 05:28:33;;;;;;;25.88;17.00;;;5.50;99.90;;;;;;6185116;23;20465;-81
2022/11/13 05:31:10;;;;;;;24.42;16.35;;;5.50;99.90;;;;;;6185843;23;20062;-81
2022/11/13 05:33:37;;;;;;;25.42;16.08;;;5.50;99.90;;;;;;6185547;23;20028;-80
2022/11/13 05:36:06;;;;;;;24.52;17.63;;;5.40;99.90;;;;;;6211760;23;20615;-81
2022/11/13 05:38:32;;;;;;;25.42;17.52;;;5.40;99.90;;;;;;6184476;23;20187;-81
2022/11/13 05:41:03;;;;;;;27.70;18.00;;;5.40;99.90;;;;;;6184981;23;20016;-81
2022/11/13 05:43:29;;;;;;;23.85;16.48;;;5.40;99.90;;;;;;6160955;23;20013;-81
2022/11/13 05:46:12;;;;;;;23.50;17.10;;;5.30;99.90;;;;;;6185984;23;20330;-80
2022/11/13 05:48:38;;;;;;;26.65;15.55;;;5.30;99.90;;;;;;6211638;23;20017;-81
2022/11/13 05:51:11;;;;;;;22.70;15.95;;;5.30;99.90;;;;;;6212123;23;20027;-81
2022/11/13 05:53:37;;;;;;;23.98;16.95;;;5.40;99.90;;;;;;6160554;23;20012;-81
2022/11/13 05:56:24;;;;;;;25.80;16.67;;;5.30;99.90;;;;;;6211749;23;20311;-81
2022/11/13 05:58:52;;;;;;;27.15;17.77;;;5.30;99.90;;;;;;6184380;23;20024;-81
2022/11/13 06:01:19;;;;;;;24.95;16.80;;;5.30;99.90;;;;;;6160643;23;20013;-80
2022/11/13 06:03:46;;;;;;;26.15;17.60;;;5.30;99.90;;;;;;6185654;23;20043;-81
2022/11/13 06:06:14;;;;;;;24.88;16.42;;;5.30;99.90;;;;;;6184468;23;20016;-81
2022/11/13 06:08:41;;;;;;;27.75;17.67;;;5.30;99.90;;;;;;6211748;23;20047;-81
2022/11/13 06:11:11;;;;;;;23.88;17.17;;;5.20;99.90;;;;;;6185599;23;20028;-81
2022/11/13 06:13:37;;;;;;;25.63;16.10;;;5.20;99.90;;;;;;6185411;23;20051;-81
2022/11/13 06:16:21;;;;;;;23.67;16.10;;;5.20;99.90;;;;;;6184950;23;20063;-81
2022/11/13 06:18:47;;;;;;;22.55;16.85;;;5.20;99.90;;;;;;6184247;23;20012;-81
2022/11/13 06:21:20;;;;;;;24.17;16.63;;;5.10;99.90;;;;;;6185540;23;20092;-81
2022/11/13 06:23:46;;;;;;;21.38;15.60;;;5.10;99.90;;;;;;6184924;23;20051;-81
2022/11/13 06:26:21;;;;;;;22.98;15.57;;;5.10;99.90;;;;;;6212562;23;20431;-81
2022/11/13 06:28:47;;;;;;;23.88;15.88;;;5.00;99.90;;;;;;6211774;23;20036;-81
2022/11/13 06:31:19;;;;;;;22.65;15.88;;;5.00;99.90;;;;;;6185093;23;20344;-81
2022/11/13 06:33:45;;;;;;;21.15;15.60;;;4.90;99.90;;;;;;6211671;23;20017;-81
2022/11/13 06:36:16;;;;;;;23.05;15.93;;;4.90;99.90;;;;;;6211616;23;20040;-81
2022/11/13 06:38:42;;;;;;;27.00;16.15;;;4.90;99.90;;;;;;6211003;23;20084;-80
2022/11/13 06:41:12;;;;;;;23.33;14.80;;;4.90;99.90;;;;;;6155242;23;20024;-81
2022/11/13 06:43:38;;;;;;;23.50;15.48;;;4.90;99.90;;;;;;6180460;23;20449;-81
2022/11/13 06:46:07;;;;;;;22.40;16.00;;;4.90;99.90;;;;;;6180742;23;20016;-81
2022/11/13 06:48:33;;;;;;;24.23;15.38;;;4.80;99.90;;;;;;6179539;23;20023;-81
2022/11/13 06:51:08;;;;;;;27.10;16.42;;;4.80;99.90;;;;;;6179460;23;20020;-81
2022/11/13 06:53:34;;;;;;;23.35;16.65;;;4.80;99.90;;;;;;6177454;23;20017;-82
2022/11/13 06:56:00;;;;;;;24.10;16.58;;;4.80;99.90;;;;;;6178552;23;20024;-82
2022/11/13 06:58:26;;;;;;;23.30;15.88;;;4.80;99.90;;;;;;6180193;23;20020;-81
2022/11/13 07:00:52;;;;;;;22.00;15.95;;;4.80;99.90;;;;;;6181189;23;20036;-81
2022/11/13 07:03:23;;;;;;;24.83;16.88;;;4.80;99.90;;;;;;6180159;23;20085;-81
2022/11/13 07:05:49;;;;;;;22.33;16.33;;;4.70;99.90;;;;;;6181247;23;20012;-80
2022/11/13 07:08:15;;;;;;;23.13;15.65;;;4.80;99.90;;;;;;6182257;23;20024;-82
2022/11/13 07:10:41;;;;;;;23.98;15.23;;;4.80;99.90;;;;;;6179815;23;20013;-80
2022/11/13 07:13:07;;;;;;;24.38;15.15;;;4.80;99.90;;;;;;6180402;23;20020;-81
2022/11/13 07:15:38;;;;;;;24.05;15.35;;;4.70;99.90;;;;;;6180957;23;20013;-81
2022/11/13 07:18:05;;;;;;;20.35;14.85;;;4.70;99.90;;;;;;6180132;23;20338;-81
2022/11/13 07:20:32;;;;;;;21.58;14.18;;;4.80;99.90;;;;;;6181191;23;20019;-81
2022/11/13 07:22:59;;;;;;;23.00;15.57;;;4.70;99.90;;;;;;6181464;23;20469;-81
2022/11/13 07:25:25;;;;;;;21.77;15.25;;;4.70;99.90;;;;;;6181151;23;20327;-81
2022/11/13 07:27:51;;;;;;;22.13;14.88;;;4.70;99.90;;;;;;6178560;23;20021;-83
2022/11/13 07:30:16;;;;;;;22.90;14.60;;;4.80;99.90;;;;;;6180697;23;20032;-81
2022/11/13 07:32:42;;;;;;;23.25;14.98;;;4.70;99.90;;;;;;6202439;23;20052;-81
2022/11/13 07:35:08;;;;;;;19.60;13.98;;;4.80;99.90;;;;;;6179358;23;20044;-82
2022/11/13 07:37:34;;;;;;;23.08;14.98;;;4.70;99.90;;;;;;6175561;23;20021;-80
2022/11/13 07:40:00;;;;;;;23.55;15.07;;;4.70;99.90;;;;;;6186077;23;20031;-80
2022/11/13 07:42:26;;;;;;;21.30;15.63;;;4.70;99.90;;;;;;6183363;23;20025;-81
2022/11/13 07:44:51;;;;;;;19.08;14.52;;;4.70;99.90;;;;;;6182955;23;20311;-81
2022/11/13 07:47:17;;;;;;;21.60;14.52;;;4.80;99.90;;;;;;6182583;23;20140;-81
2022/11/13 07:49:43;;;;;;;21.52;14.40;;;4.80;99.90;;;;;;6183928;23;20334;-81
2022/11/13 07:52:08;;;;;;;21.13;14.30;;;4.70;99.90;;;;;;6183421;23;20017;-81
2022/11/13 07:54:34;;;;;;;21.92;15.77;;;4.70;99.90;;;;;;6183247;23;20017;-82
2022/11/13 07:57:00;;;;;;;24.15;15.80;;;4.70;99.90;;;;;;6210185;23;20031;-81
2022/11/13 07:59:25;;;;;;;25.77;16.08;;;4.80;99.90;;;;;;6209393;23;20016;-81
2022/11/13 08:01:51;;;;;;;23.05;15.75;;;4.80;99.90;;;;;;6157610;23;20083;-80
2022/11/13 08:04:17;;;;;;;22.65;15.27;;;4.80;99.90;;;;;;6210384;23;20023;-80
2022/11/13 08:06:42;;;;;;;22.98;15.07;;;4.80;99.90;;;;;;6183101;23;20027;-81
2022/11/13 08:09:08;;;;;;;23.67;15.38;;;4.80;99.90;;;;;;6183048;23;20024;-80
2022/11/13 08:11:34;;;;;;;21.13;14.65;;;4.80;99.90;;;;;;6209879;23;20017;-80
2022/11/13 08:14:00;;;;;;;23.08;15.70;;;4.90;99.90;;;;;;6210450;23;20071;-81
2022/11/13 08:16:26;;;;;;;21.20;14.70;;;4.90;99.90;;;;;;6209167;23;20021;-80
2022/11/13 08:18:51;;;;;;;22.42;15.50;;;4.90;99.90;;;;;;6210141;23;20437;-81
2022/11/13 08:21:17;;;;;;;22.10;15.30;;;4.90;99.90;;;;;;6210657;23;20008;-80
2022/11/13 08:23:43;;;;;;;19.73;14.85;;;5.00;99.90;;;;;;6183161;23;20016;-81
2022/11/13 08:26:09;;;;;;;22.58;13.98;;;5.00;99.90;;;;;;6210099;23;20017;-81
2022/11/13 08:28:35;;;;;;;23.55;16.25;;;5.00;99.90;;;;;;6182967;23;20017;-80
2022/11/13 08:31:02;;;;;;;23.25;16.23;;;5.00;99.90;;;;;;6181459;23;20095;-82
2022/11/13 08:33:28;;;;;;;24.83;17.08;;;5.10;99.90;;;;;;6183015;23;20429;-84
2022/11/13 08:35:55;;;;;;;26.50;16.58;;;5.10;99.90;;;;;;6206701;23;20027;-84
2022/11/13 08:38:22;;;;;;;26.67;17.77;;;5.20;99.90;;;;;;6182598;23;20016;-83
2022/11/13 08:40:47;;;;;;;24.13;15.75;;;5.10;99.90;;;;;;6209649;23;20445;-82
2022/11/13 08:43:13;;;;;;;24.23;17.48;;;5.20;99.90;;;;;;6209496;23;20017;-83
2022/11/13 08:45:39;;;;;;;24.70;17.00;;;5.20;99.90;;;;;;6208336;23;20015;-84
2022/11/13 08:48:05;;;;;;;26.05;18.40;;;5.30;99.90;;;;;;6207190;23;20016;-84
2022/11/13 08:50:32;;;;;;;24.08;17.10;;;5.50;99.90;;;;;;6181839;23;20017;-84
2022/11/13 08:52:59;;;;;;;25.52;17.42;;;5.30;99.90;;;;;;6209238;23;20043;-84
2022/11/13 08:55:26;;;;;;;26.65;18.67;;;5.40;99.90;;;;;;6210941;23;20044;-83
2022/11/13 08:57:52;;;;;;;31.85;17.23;;;5.40;99.90;;;;;;6183091;23;20251;-84
2022/11/13 09:00:19;;;;;;;26.98;18.15;;;5.40;99.90;;;;;;6211166;23;20067;-85
2022/11/13 09:02:44;;;;;;;27.67;18.52;;;5.50;99.90;;;;;;6184651;23;20009;-84
2022/11/13 09:05:10;;;;;;;29.05;18.90;;;5.60;99.90;;;;;;6211181;23;20311;-84
2022/11/13 09:07:36;;;;;;;31.98;19.20;;;5.60;99.90;;;;;;6183755;23;20067;-86
2022/11/13 09:10:01;;;;;;;30.23;19.98;;;5.60;99.90;;;;;;6210388;23;20023;-83
2022/11/13 09:12:27;;;;;;;23.08;17.38;;;5.70;99.90;;;;;;6209082;23;20099;-87
2022/11/13 09:14:52;;;;;;;31.55;19.95;;;5.70;99.90;;;;;;6210165;23;20009;-85
2022/11/13 09:17:18;;;;;;;30.42;19.85;;;5.80;99.90;;;;;;6210370;23;20055;-85
2022/11/13 09:19:44;;;;;;;32.03;19.00;;;5.80;99.90;;;;;;6160467;23;20013;-85
2022/11/13 09:22:09;;;;;;;30.23;20.30;;;5.90;99.90;;;;;;6212726;23;20372;-84
2022/11/13 09:24:35;;;;;;;28.40;19.08;;;5.90;99.90;;;;;;6212476;23;20015;-85
2022/11/13 09:27:01;;;;;;;33.10;18.70;;;6.30;99.90;;;;;;6212995;23;20048;-84
2022/11/13 09:29:27;;;;;;;31.20;19.75;;;6.00;99.90;;;;;;6184894;23;20516;-86
2022/11/13 09:31:53;;;;;;;30.15;19.25;;;6.10;99.90;;;;;;6185548;23;20013;-86
2022/11/13 09:34:20;;;;;;;29.67;18.65;;;6.20;99.90;;;;;;6185385;23;20024;-85
2022/11/13 09:36:45;;;;;;;27.05;18.13;;;6.30;99.90;;;;;;6186176;23;20017;-85
2022/11/13 09:39:11;;;;;;;27.42;18.10;;;6.40;99.90;;;;;;6210971;23;20143;-82
2022/11/13 09:41:44;;;;;;;27.98;18.35;;;6.50;99.90;;;;;;6184793;23;20336;-82
2022/11/13 09:44:35;;;;;;;28.95;17.33;;;6.60;99.90;;;;;;6212296;23;20017;-82
2022/11/13 09:47:11;;;;;;;27.25;17.73;;;6.80;99.90;;;;;;6212339;23;20067;-83
2022/11/13 09:49:50;;;;;;;24.60;16.88;;;6.90;99.90;;;;;;6185964;23;20084;-83
2022/11/13 09:52:31;;;;;;;26.30;17.02;;;7.00;99.90;;;;;;6212523;23;20013;-83
2022/11/13 09:54:57;;;;;;;23.02;16.52;;;7.20;99.90;;;;;;6212161;23;20017;-84
2022/11/13 09:57:41;;;;;;;24.48;15.25;;;7.30;99.90;;;;;;6211795;23;20058;-85
2022/11/13 10:00:18;;;;;;;19.88;14.80;;;7.30;99.90;;;;;;6184830;23;20021;-85
2022/11/13 10:02:59;;;;;;;21.27;14.95;;;7.40;99.90;;;;;;6212404;23;20389;-82
2022/11/13 10:05:43;;;;;;;23.25;15.18;;;7.50;99.90;;;;;;6184610;23;20066;-82
2022/11/13 10:08:23;;;;;;;20.27;15.07;;;7.60;99.90;;;;;;6185149;23;20023;-83
2022/11/13 10:11:13;;;;;;;24.08;15.20;;;7.70;99.90;;;;;;6159164;23;20019;-83
2022/11/13 10:13:48;;;;;;;20.38;14.15;;;7.80;99.90;;;;;;6185329;23;20437;-85
2022/11/13 10:16:37;;;;;;;20.98;14.77;;;7.90;99.90;;;;;;6185422;23;20039;-81
2022/11/13 10:19:24;;;;;;;23.45;14.82;;;8.10;99.90;;;;;;6211776;23;20027;-82
2022/11/13 10:22:00;;;;;;;18.45;13.57;;;8.20;99.90;;;;;;6185534;23;20073;-83
2022/11/13 10:24:40;;;;;;;19.92;14.20;;;8.30;99.90;;;;;;6210924;23;20027;-81
2022/11/13 10:27:13;;;;;;;16.77;12.82;;;8.40;99.90;;;;;;6211448;23;20031;-82
2022/11/13 10:29:39;;;;;;;17.98;13.40;;;8.50;99.90;;;;;;6211857;23;20306;-82
2022/11/13 10:32:22;;;;;;;17.50;12.98;;;8.50;99.90;;;;;;6185829;23;20020;-81
2022/11/13 10:35:03;;;;;;;18.55;11.95;;;8.70;99.90;;;;;;6158944;23;20043;-82
2022/11/13 10:37:55;;;;;;;15.20;12.27;;;8.80;99.90;;;;;;6185223;23;20023;-82
2022/11/13 10:40:31;;;;;;;17.40;11.98;;;8.80;99.90;;;;;;6183691;23;20091;-85
2022/11/13 10:43:16;;;;;;;16.38;12.23;;;8.80;99.90;;;;;;6158432;23;20017;-84
2022/11/13 10:45:52;;;;;;;18.95;12.95;;;8.80;99.90;;;;;;6211634;23;20451;-85
2022/11/13 10:48:23;;;;;;;17.15;13.02;;;8.90;99.90;;;;;;6210853;23;20481;-83
2022/11/13 10:50:54;;;;;;;16.95;12.02;;;9.00;99.90;;;;;;6211128;23;20015;-83
2022/11/13 10:53:20;;;;;;;16.20;12.50;;;9.20;99.90;;;;;;6211634;23;20016;-83
2022/11/13 10:55:51;;;;;;;17.15;12.65;;;9.40;99.90;;;;;;6211414;23;20437;-83
2022/11/13 10:58:18;;;;;;;15.93;12.23;;;9.50;99.90;;;;;;6212377;23;20020;-83
2022/11/13 11:00:47;;;;;;;15.57;11.88;;;9.70;99.90;;;;;;6212159;23;20012;-83
2022/11/13 11:03:23;;;;;;;14.43;11.32;;;9.90;99.90;;;;;;6211300;23;20005;-83
2022/11/13 11:05:55;;;;;;;13.63;10.65;;;10.20;99.90;;;;;;6211905;23;20020;-83
2022/11/13 11:08:26;;;;;;;14.13;11.00;;;10.40;99.90;;;;;;6212324;23;20044;-83
2022/11/13 11:13:47;;;;;;;14.25;10.05;;;10.70;99.90;;;;;;6210297;23;20021;-83
2022/11/13 11:16:20;;;;;;;12.85;10.35;;;10.90;99.90;;;;;;6211971;23;20012;-83
2022/11/13 11:18:59;;;;;;;12.48;9.77;;;11.00;99.90;;;;;;6212035;23;20029;-83
2022/11/13 11:21:31;;;;;;;12.63;10.13;;;11.10;99.90;;;;;;6183409;23;20028;-84
2022/11/13 11:24:06;;;;;;;14.15;9.95;;;11.20;99.90;;;;;;6184705;23;20087;-85
2022/11/13 11:26:36;;;;;;;13.93;9.68;;;11.50;99.90;;;;;;6211307;23;20009;-82
2022/11/13 11:29:27;;;;;;;15.10;9.93;;;11.50;99.90;;;;;;6211083;23;20039;-81
2022/11/13 11:31:59;;;;;;;12.57;10.50;;;11.60;99.90;;;;;;6211633;23;20036;-81
2022/11/13 11:34:34;;;;;;;12.73;9.98;;;11.70;99.90;;;;;;6211681;23;20013;-82
2022/11/13 11:37:21;;;;;;;13.93;10.30;;;11.80;99.90;;;;;;6185050;23;20092;-81
2022/11/13 11:40:07;;;;;;;12.10;9.45;;;12.00;99.90;;;;;;6209648;23;20017;-81
2022/11/13 11:42:44;;;;;;;13.40;9.73;;;12.10;99.90;;;;;;6211275;23;20056;-81
2022/11/13 11:45:41;;;;;;;16.85;10.27;;;12.20;99.90;;;;;;6211685;23;20017;-82
2022/11/13 11:48:17;;;;;;;13.23;9.75;;;12.30;99.90;;;;;;6184530;23;20016;-81
2022/11/13 11:50:59;;;;;;;13.57;10.57;;;12.40;99.90;;;;;;6183472;23;20012;-81
2022/11/13 11:53:52;;;;;;;14.07;9.73;;;12.50;99.90;;;;;;6210574;23;20441;-81
2022/11/13 11:56:31;;;;;;;12.70;9.65;;;12.60;99.90;;;;;;6211013;23;20009;-82
2022/11/13 11:59:06;;;;;;;13.30;9.48;;;12.70;99.90;;;;;;6211982;23;20079;-81
2022/11/13 12:01:46;;;;;;;11.63;9.25;;;12.70;99.90;;;;;;6211847;23;20016;-82
2022/11/13 12:04:33;;;;;;;15.80;10.07;;;12.80;99.90;;;;;;6211715;23;20013;-82
2022/11/13 12:07:09;;;;;;;15.55;10.70;;;12.90;99.90;;;;;;6210777;23;20344;-81
2022/11/13 12:09:49;;;;;;;14.38;9.40;;;13.00;99.90;;;;;;6210688;23;20031;-82
2022/11/13 12:12:33;;;;;;;13.63;8.85;;;13.00;99.90;;;;;;6184892;23;20016;-85
2022/11/13 12:15:17;;;;;;;12.33;8.90;;;13.10;99.90;;;;;;6211425;23;20016;-81
2022/11/13 12:18:04;;;;;;;11.07;8.55;;;13.10;99.90;;;;;;6209810;23;20012;-82
2022/11/13 12:20:44;;;;;;;10.60;8.38;;;13.20;99.90;;;;;;6156835;23;20037;-81
2022/11/13 12:23:18;;;;;;;12.07;9.25;;;13.20;99.90;;;;;;6210022;23;20435;-81
2022/11/13 12:26:00;;;;;;;11.85;8.65;;;13.20;99.90;;;;;;6211104;23;20021;-83
2022/11/13 12:28:44;;;;;;;12.15;8.27;;;13.30;99.90;;;;;;6183845;23;20508;-83
2022/11/13 12:31:48;;;;;;;10.80;8.82;;;13.20;99.90;;;;;;6210868;23;20142;-83
2022/11/13 12:34:36;;;;;;;17.83;9.00;;;13.30;99.90;;;;;;6210305;23;20020;-85
2022/11/13 12:37:09;;;;;;;11.60;9.10;;;13.20;99.90;;;;;;6210598;23;20016;-85
2022/11/13 12:39:57;;;;;;;11.10;8.40;;;13.20;99.90;;;;;;6213479;23;20698;-85
2022/11/13 12:42:33;;;;;;;12.27;8.68;;;13.20;99.90;;;;;;6211609;23;20055;-83
2022/11/13 12:45:47;;;;;;;14.35;8.80;;;13.10;99.90;;;;;;6211543;23;20009;-85
2022/11/13 12:48:13;;;;;;;12.35;8.90;;;13.10;99.90;;;;;;6187164;23;20066;-85
2022/11/13 12:50:41;;;;;;;13.88;8.65;;;13.40;99.90;;;;;;6187419;23;20021;-84
2022/11/13 12:53:11;;;;;;;11.48;9.60;;;13.00;99.90;;;;;;6188913;23;20023;-86
2022/11/13 12:55:40;;;;;;;11.07;8.15;;;13.00;99.90;;;;;;6215133;23;20433;-85